createdAt,value
2019-04-06T00:00:37.015Z,23.90
2019-04-06T00:03:07.005Z,25.17
2019-04-06T00:05:37.011Z,24.83
2019-04-06T00:08:06.933Z,24.23
2019-04-06T00:10:36.833Z,22.53
2019-04-06T00:13:06.712Z,26.33
2019-04-06T00:15:36.627Z,23.33
2019-04-06T00:18:06.576Z,26.97
2019-04-06T00:20:36.482Z,26.17
2019-04-06T00:23:06.454Z,22.93
2019-04-06T00:25:44.258Z,23.60
2019-04-06T00:28:07.957Z,22.20
2019-04-06T00:30:55.723Z,25.37
2019-04-06T00:33:25.655Z,24.03
2019-04-06T00:35:55.630Z,23.37
2019-04-06T00:38:25.620Z,25.10
2019-04-06T00:40:55.612Z,25.83
2019-04-06T00:43:25.530Z,26.40
2019-04-06T00:45:55.436Z,23.60
2019-04-06T00:48:25.331Z,25.03
2019-04-06T00:50:55.247Z,25.43
2019-04-06T00:53:25.076Z,27.07
2019-04-06T00:55:56.336Z,23.70
2019-04-06T00:58:26.315Z,24.53
2019-04-06T01:00:56.214Z,24.40
2019-04-06T01:03:26.141Z,30.13
2019-04-06T01:05:56.042Z,26.13
2019-04-06T01:08:25.919Z,27.27
2019-04-06T01:10:55.844Z,29.10
2019-04-06T01:13:25.679Z,28.70
2019-04-06T01:15:55.592Z,28.83
2019-04-06T01:18:25.622Z,27.73
2019-04-06T01:20:56.613Z,28.83
2019-04-06T01:23:26.541Z,27.60
2019-04-06T01:26:06.697Z,24.33
2019-04-06T01:28:28.221Z,26.10
2019-04-06T01:30:58.189Z,28.93
2019-04-06T01:33:28.041Z,27.57
2019-04-06T01:35:58.021Z,25.90
2019-04-06T01:38:27.922Z,27.93
2019-04-06T01:40:57.849Z,23.60
2019-04-06T01:43:27.724Z,25.90
2019-04-06T01:45:57.698Z,23.07
2019-04-06T01:48:27.681Z,25.47
2019-04-06T01:50:57.643Z,24.37
2019-04-06T01:53:27.501Z,24.67
2019-04-06T01:55:57.760Z,23.53
2019-04-06T01:58:27.660Z,24.67
2019-04-06T02:01:11.003Z,23.90
2019-04-06T02:03:40.908Z,25.20
2019-04-06T02:06:10.739Z,27.83
2019-04-06T02:08:40.636Z,27.53
2019-04-06T02:11:10.640Z,26.67
2019-04-06T02:13:40.539Z,24.57
2019-04-06T02:16:10.431Z,26.43
2019-04-06T02:18:41.412Z,24.17
2019-04-06T02:21:11.298Z,28.10
2019-04-06T02:23:41.274Z,27.90
2019-04-06T02:26:11.095Z,29.27
2019-04-06T02:28:40.968Z,28.80
2019-04-06T02:31:14.596Z,26.83
2019-04-06T02:33:55.959Z,22.10
2019-04-06T02:36:43.521Z,25.27
2019-04-06T02:39:20.189Z,23.27
2019-04-06T02:41:55.017Z,24.53
2019-04-06T02:44:25.018Z,24.23
2019-04-06T02:46:54.994Z,23.80
2019-04-06T02:49:24.903Z,22.70
2019-04-06T02:51:54.809Z,29.10
2019-04-06T02:54:24.663Z,30.60
2019-04-06T02:56:54.578Z,29.27
2019-04-06T02:59:25.490Z,27.13
2019-04-06T03:01:55.477Z,30.63
2019-04-06T03:04:25.597Z,28.30
2019-04-06T03:06:55.607Z,28.43
2019-04-06T03:09:26.529Z,28.67
2019-04-06T03:11:56.407Z,32.77
2019-04-06T03:14:26.432Z,26.67
2019-04-06T03:16:56.384Z,30.60
2019-04-06T03:19:26.286Z,28.47
2019-04-06T03:21:56.260Z,31.20
2019-04-06T03:24:26.236Z,29.10
2019-04-06T03:27:01.975Z,27.23
2019-04-06T03:29:27.734Z,26.07
2019-04-06T03:31:57.647Z,27.77
2019-04-06T03:34:27.840Z,30.47
2019-04-06T03:36:57.707Z,26.90
2019-04-06T03:39:27.646Z,26.27
2019-04-06T03:41:57.597Z,27.17
2019-04-06T03:44:27.510Z,26.27
2019-04-06T03:46:57.398Z,24.23
2019-04-06T03:49:27.478Z,27.10
2019-04-06T03:51:57.461Z,28.17
2019-04-06T03:54:27.351Z,24.83
2019-04-06T03:56:57.530Z,26.97
2019-04-06T03:59:27.658Z,29.90
2019-04-06T04:01:57.473Z,28.50
2019-04-06T04:04:27.515Z,27.57
2019-04-06T04:06:57.316Z,28.80
2019-04-06T04:09:27.255Z,31.43
2019-04-06T04:11:57.355Z,32.70
2019-04-06T04:14:28.787Z,34.10
2019-04-06T04:16:58.761Z,31.43
2019-04-06T04:19:28.798Z,31.93
2019-04-06T04:21:58.990Z,28.70
2019-04-06T04:24:28.771Z,28.40
2019-04-06T04:26:58.614Z,30.57
2019-04-06T04:29:28.449Z,32.37
2019-04-06T04:31:58.371Z,32.10
2019-04-06T04:34:28.275Z,31.43
2019-04-06T04:36:58.175Z,29.30
2019-04-06T04:39:28.044Z,26.83
2019-04-06T04:41:58.000Z,26.83
2019-04-06T04:44:27.911Z,27.13
2019-04-06T04:46:57.831Z,27.83
2019-04-06T04:49:27.746Z,27.70
2019-04-06T04:51:57.712Z,32.07
2019-04-06T04:54:27.607Z,33.67
2019-04-06T04:56:57.466Z,33.27
2019-04-06T04:59:27.413Z,34.77
2019-04-06T05:01:57.217Z,35.30
2019-04-06T05:04:27.119Z,34.80
2019-04-06T05:06:56.947Z,34.53
2019-04-06T05:09:26.898Z,37.60
2019-04-06T05:11:56.729Z,34.60
2019-04-06T05:14:57.511Z,36.80
2019-04-06T05:17:29.459Z,34.77
2019-04-06T05:19:59.455Z,36.83
2019-04-06T05:22:29.530Z,37.47
2019-04-06T05:24:59.505Z,34.90
2019-04-06T05:27:29.489Z,34.73
2019-04-06T05:30:00.281Z,39.03
2019-04-06T05:32:31.180Z,33.60
2019-04-06T05:35:01.021Z,35.70
2019-04-06T05:37:30.855Z,33.90
2019-04-06T05:40:00.855Z,34.60
2019-04-06T05:42:30.770Z,31.47
2019-04-06T05:45:00.596Z,36.67
2019-04-06T05:47:30.593Z,37.83
2019-04-06T05:50:00.636Z,37.27
2019-04-06T05:52:30.679Z,31.97
2019-04-06T05:55:00.586Z,34.13
2019-04-06T05:57:32.128Z,35.83
2019-04-06T06:00:03.076Z,33.80
2019-04-06T06:02:32.923Z,30.50
2019-04-06T06:05:02.927Z,28.10
2019-04-06T06:07:33.902Z,32.23
2019-04-06T06:10:03.927Z,34.37
2019-04-06T06:12:33.841Z,34.87
2019-04-06T06:15:04.397Z,30.13
2019-04-06T06:17:36.392Z,39.13
2019-04-06T06:20:06.475Z,33.10
2019-04-06T06:22:36.447Z,30.97
2019-04-06T06:25:06.709Z,33.37
2019-04-06T06:27:36.619Z,30.40
2019-04-06T06:30:08.532Z,35.80
2019-04-06T06:32:38.522Z,41.30
2019-04-06T06:35:08.963Z,31.77
2019-04-06T06:37:39.105Z,39.53
2019-04-06T06:40:09.394Z,33.27
2019-04-06T06:42:39.392Z,35.17
2019-04-06T06:45:09.828Z,35.43
2019-04-06T06:47:39.980Z,35.43
2019-04-06T06:50:10.074Z,36.83
2019-04-06T06:52:40.182Z,34.37
2019-04-06T06:55:10.300Z,38.27
2019-04-06T06:57:40.411Z,37.93
2019-04-06T07:00:12.479Z,39.30
2019-04-06T07:02:42.494Z,37.53
2019-04-06T07:05:12.674Z,37.57
2019-04-06T07:07:42.601Z,38.80
2019-04-06T07:10:12.590Z,35.03
2019-04-06T07:12:42.526Z,37.80
2019-04-06T07:15:12.642Z,37.50
2019-04-06T07:17:42.696Z,41.70
2019-04-06T07:20:13.197Z,39.27
2019-04-06T07:22:43.278Z,38.43
2019-04-06T07:25:13.460Z,43.03
2019-04-06T07:27:43.430Z,40.47
2019-04-06T07:30:13.768Z,38.67
2019-04-06T07:32:43.893Z,36.97
2019-04-06T07:35:14.328Z,37.47
2019-04-06T07:37:45.210Z,43.87
2019-04-06T07:40:15.535Z,40.27
2019-04-06T07:42:45.953Z,40.00
2019-04-06T07:45:17.800Z,41.13
2019-04-06T07:47:47.627Z,39.63
2019-04-06T07:50:17.714Z,36.87
2019-04-06T07:52:47.744Z,40.30
2019-04-06T07:55:20.524Z,37.20
2019-04-06T07:57:50.367Z,39.57
2019-04-06T08:00:20.643Z,37.63
2019-04-06T08:02:50.742Z,35.73
2019-04-06T08:05:20.657Z,41.07
2019-04-06T08:07:50.809Z,37.53
2019-04-06T08:10:20.692Z,42.33
2019-04-06T08:12:50.537Z,41.80
2019-04-06T08:15:20.464Z,41.63
2019-04-06T08:17:50.508Z,39.73
2019-04-06T08:20:20.646Z,35.67
2019-04-06T08:22:50.661Z,39.40
2019-04-06T08:25:20.673Z,40.60
2019-04-06T08:27:50.683Z,37.03
2019-04-06T08:30:20.878Z,38.30
2019-04-06T08:32:50.769Z,37.27
2019-04-06T08:35:25.758Z,39.20
2019-04-06T08:37:52.537Z,39.63
2019-04-06T08:40:23.615Z,41.70
2019-04-06T08:42:53.615Z,38.97
2019-04-06T08:45:23.594Z,37.13
2019-04-06T08:47:53.745Z,37.83
2019-04-06T08:50:23.648Z,39.50
2019-04-06T08:52:53.485Z,38.07
2019-04-06T08:55:23.346Z,36.10
2019-04-06T08:57:53.396Z,36.67
2019-04-06T09:00:23.517Z,36.73
2019-04-06T09:02:53.900Z,37.27
2019-04-06T09:05:23.911Z,38.23
2019-04-06T09:07:53.873Z,33.63
2019-04-06T09:10:24.353Z,37.30
2019-04-06T09:12:55.257Z,41.73
2019-04-06T09:15:25.147Z,41.63
2019-04-06T09:17:55.210Z,37.43
2019-04-06T09:20:25.230Z,41.00
2019-04-06T09:22:55.124Z,42.93
2019-04-06T09:25:25.016Z,40.20
2019-04-06T09:27:54.863Z,40.03
2019-04-06T09:30:24.907Z,40.20
2019-04-06T09:32:54.954Z,45.17
2019-04-06T09:35:24.944Z,39.77
2019-04-06T09:37:54.856Z,39.00
2019-04-06T09:40:24.726Z,38.07
2019-04-06T09:42:54.641Z,41.53
2019-04-06T09:45:42.107Z,35.87
2019-04-06T09:48:21.392Z,39.17
2019-04-06T09:51:11.794Z,37.80
2019-04-06T09:54:12.877Z,35.57
2019-04-06T09:56:55.925Z,34.00
2019-04-06T09:59:37.033Z,32.00
2019-04-06T10:02:16.978Z,31.73
2019-04-06T10:05:14.188Z,30.70
2019-04-06T10:08:05.756Z,28.47
2019-04-06T10:10:48.197Z,28.80
2019-04-06T10:13:39.891Z,27.07
2019-04-06T10:16:28.070Z,29.87
2019-04-06T10:19:16.074Z,28.97
2019-04-06T10:21:58.798Z,31.87
2019-04-06T10:24:47.703Z,30.83
2019-04-06T10:27:51.801Z,31.30
2019-04-06T10:30:35.702Z,32.40
2019-04-06T10:33:24.663Z,27.30
2019-04-06T10:36:14.675Z,27.13
2019-04-06T10:39:02.534Z,25.87
2019-04-06T10:42:02.451Z,25.43
2019-04-06T10:45:00.515Z,27.97
2019-04-06T10:48:00.268Z,25.90
2019-04-06T10:50:49.577Z,25.63
2019-04-06T10:53:32.794Z,25.10
2019-04-06T10:56:37.012Z,28.70
2019-04-06T10:59:40.994Z,27.57
2019-04-06T11:02:28.806Z,26.63
2019-04-06T11:05:30.141Z,27.03
2019-04-06T11:08:19.184Z,26.30
2019-04-06T11:11:08.106Z,23.53
2019-04-06T11:14:03.074Z,22.53
2019-04-06T11:16:57.929Z,24.27
2019-04-06T11:19:45.669Z,23.50
2019-04-06T11:22:27.578Z,21.63
2019-04-06T11:25:19.661Z,23.97
2019-04-06T11:27:56.138Z,23.77
2019-04-06T11:31:03.300Z,26.30
2019-04-06T11:34:01.187Z,20.20
2019-04-06T11:36:55.732Z,19.30
2019-04-06T11:39:56.813Z,20.90
2019-04-06T11:42:33.892Z,20.43
2019-04-06T11:45:19.193Z,22.80
2019-04-06T11:47:56.579Z,21.53
2019-04-06T11:50:39.606Z,19.23
2019-04-06T11:53:46.841Z,19.60
2019-04-06T11:56:34.472Z,20.60
2019-04-06T11:59:22.461Z,19.63
2019-04-06T12:02:26.651Z,20.83
2019-04-06T12:05:21.740Z,18.63
2019-04-06T12:08:25.783Z,20.90
2019-04-06T12:11:13.417Z,20.90
2019-04-06T12:13:51.870Z,20.67
2019-04-06T12:16:52.891Z,21.87
2019-04-06T12:19:49.768Z,19.97
2019-04-06T12:22:44.644Z,18.37
2019-04-06T12:25:29.841Z,15.93
2019-04-06T12:28:21.366Z,19.47
2019-04-06T12:31:18.028Z,20.00
2019-04-06T12:33:58.313Z,21.27
2019-04-06T12:36:37.451Z,19.10
2019-04-06T12:39:27.534Z,15.27
2019-04-06T12:42:08.504Z,15.07
2019-04-06T12:44:49.686Z,17.03
2019-04-06T12:47:28.599Z,20.47
2019-04-06T12:50:26.859Z,15.83
2019-04-06T12:53:27.574Z,17.47
2019-04-06T12:56:19.185Z,17.87
2019-04-06T12:59:20.168Z,16.93
2019-04-06T13:02:08.197Z,16.03
2019-04-06T13:04:59.945Z,15.90
2019-04-06T13:07:48.198Z,15.60
2019-04-06T13:10:36.139Z,16.00
2019-04-06T13:13:27.911Z,16.90
2019-04-06T13:16:20.230Z,14.93
2019-04-06T13:19:15.322Z,13.73
2019-04-06T13:22:22.529Z,14.33
2019-04-06T13:25:01.107Z,17.97
2019-04-06T13:27:52.964Z,14.80
2019-04-06T13:31:02.102Z,16.27
2019-04-06T13:33:31.786Z,13.73
2019-04-06T13:36:12.307Z,12.73
2019-04-06T13:38:49.434Z,14.10
2019-04-06T13:41:34.496Z,14.10
2019-04-06T13:44:12.539Z,13.93
2019-04-06T13:47:10.779Z,12.63
2019-04-06T13:49:58.742Z,10.30
2019-04-06T13:52:46.614Z,10.67
2019-04-06T13:55:32.440Z,11.20
2019-04-06T13:58:11.176Z,12.20
2019-04-06T14:01:16.015Z,11.43
2019-04-06T14:03:57.090Z,10.40
2019-04-06T14:06:44.850Z,9.63
2019-04-06T14:09:33.447Z,9.77
2019-04-06T14:12:09.616Z,9.60
2019-04-06T14:14:46.516Z,9.07
2019-04-06T14:17:25.333Z,9.00
2019-04-06T14:20:14.231Z,10.50
2019-04-06T14:22:54.569Z,9.00
2019-04-06T14:25:46.201Z,9.47
2019-04-06T14:28:28.679Z,8.67
2019-04-06T14:31:27.399Z,9.20
2019-04-06T14:34:10.500Z,10.00
2019-04-06T14:37:08.705Z,9.23
2019-04-06T14:39:56.325Z,9.03
2019-04-06T14:42:43.935Z,8.40
2019-04-06T14:45:30.240Z,11.20
2019-04-06T14:48:12.514Z,8.87
2019-04-06T14:50:51.951Z,9.17
2019-04-06T14:53:29.225Z,9.03
2019-04-06T14:56:20.976Z,8.80
2019-04-06T14:59:09.066Z,8.50
2019-04-06T15:02:07.253Z,11.10
2019-04-06T15:04:55.030Z,8.17
2019-04-06T15:07:30.951Z,8.83
2019-04-06T15:10:11.939Z,8.70
2019-04-06T15:12:59.829Z,8.80
2019-04-06T15:15:47.323Z,8.27
2019-04-06T15:18:35.277Z,9.67
2019-04-06T15:21:21.539Z,8.17
2019-04-06T15:24:13.972Z,7.93
2019-04-06T15:27:08.835Z,8.20
2019-04-06T15:30:01.013Z,8.30
2019-04-06T15:32:44.749Z,8.17
2019-04-06T15:35:32.464Z,8.17
2019-04-06T15:38:21.355Z,8.33
2019-04-06T15:41:06.393Z,7.60
2019-04-06T15:43:58.343Z,9.13
2019-04-06T15:46:49.446Z,8.87
2019-04-06T15:49:50.564Z,7.57
2019-04-06T15:52:38.406Z,8.67
2019-04-06T15:55:25.870Z,9.40
2019-04-06T15:58:17.763Z,7.73
2019-04-06T16:01:05.317Z,8.27
2019-04-06T16:03:48.837Z,8.27
2019-04-06T16:06:50.462Z,8.17
2019-04-06T16:09:38.940Z,7.67
2019-04-06T16:12:33.741Z,7.57
2019-04-06T16:15:18.822Z,9.87
2019-04-06T16:18:07.717Z,9.43
2019-04-06T16:20:59.676Z,6.83
2019-04-06T16:24:01.533Z,8.27
2019-04-06T16:26:34.152Z,7.27
2019-04-06T16:29:26.072Z,6.90
2019-04-06T16:32:32.963Z,6.93
2019-04-06T16:35:17.249Z,6.87
2019-04-06T16:38:00.535Z,7.43
2019-04-06T16:40:37.095Z,5.73
2019-04-06T16:43:16.558Z,6.07
2019-04-06T16:45:53.924Z,8.17
2019-04-06T16:48:37.876Z,5.53
2019-04-06T16:51:29.823Z,5.60
2019-04-06T16:54:33.962Z,5.87
2019-04-06T16:57:22.721Z,5.23
2019-04-06T17:00:20.084Z,5.90
2019-04-06T17:03:10.908Z,5.20
2019-04-06T17:06:11.828Z,6.67
2019-04-06T17:08:52.360Z,6.07
2019-04-06T17:11:38.325Z,5.63
2019-04-06T17:14:27.426Z,5.20
2019-04-06T17:17:06.421Z,4.80
2019-04-06T17:19:53.949Z,4.97
2019-04-06T17:22:29.392Z,7.97
2019-04-06T17:25:14.056Z,5.60
2019-04-06T17:27:52.560Z,6.30
2019-04-06T17:30:28.006Z,8.37
2019-04-06T17:33:16.936Z,5.40
2019-04-06T17:35:54.777Z,5.80
2019-04-06T17:38:52.475Z,5.90
2019-04-06T17:41:50.646Z,6.00
2019-04-06T17:44:32.502Z,7.23
2019-04-06T17:47:24.372Z,7.60
2019-04-06T17:50:22.019Z,7.07
2019-04-06T17:53:06.527Z,6.33
2019-04-06T17:55:54.889Z,6.60
2019-04-06T17:58:50.708Z,6.13
2019-04-06T18:01:44.592Z,6.20
2019-04-06T18:04:28.139Z,7.20
2019-04-06T18:07:15.101Z,6.30
2019-04-06T18:10:03.349Z,8.77
2019-04-06T18:12:48.631Z,6.70
2019-04-06T18:15:18.802Z,7.10
2019-04-06T18:17:49.407Z,6.97
2019-04-06T18:20:19.685Z,6.93
2019-04-06T18:22:50.148Z,8.73
2019-04-06T18:25:20.269Z,6.60
2019-04-06T18:27:50.558Z,7.37
2019-04-06T18:30:21.291Z,7.03
2019-04-06T18:33:00.721Z,7.07
2019-04-06T18:35:27.179Z,9.73
2019-04-06T18:38:02.522Z,7.87
2019-04-06T18:40:32.671Z,7.00
2019-04-06T18:43:02.608Z,6.63
2019-04-06T18:45:33.315Z,7.03
2019-04-06T18:48:03.452Z,5.97
2019-04-06T18:50:38.034Z,6.10
2019-04-06T18:53:05.578Z,6.80
2019-04-06T18:55:35.971Z,6.50
2019-04-06T18:58:12.131Z,5.83
2019-04-06T19:00:37.638Z,6.73
2019-04-06T19:03:14.723Z,7.27
2019-04-06T19:05:39.299Z,5.50
2019-04-06T19:08:09.603Z,6.20
2019-04-06T19:10:39.937Z,7.63
2019-04-06T19:13:10.002Z,5.90
2019-04-06T19:15:39.959Z,6.90
2019-04-06T19:18:10.037Z,6.60
2019-04-06T19:20:40.780Z,5.53
2019-04-06T19:23:10.861Z,5.50
2019-04-06T19:25:41.028Z,5.93
2019-04-06T19:28:12.106Z,6.30
2019-04-06T19:30:42.010Z,6.07
2019-04-06T19:33:22.563Z,5.87
2019-04-06T19:35:43.684Z,6.10
2019-04-06T19:38:13.586Z,6.43
2019-04-06T19:40:43.839Z,6.07
2019-04-06T19:43:15.133Z,6.30
2019-04-06T19:45:45.396Z,6.23
2019-04-06T19:48:15.305Z,8.57
2019-04-06T19:50:45.298Z,6.60
2019-04-06T19:53:15.293Z,6.47
2019-04-06T19:55:45.554Z,6.40
2019-04-06T19:58:15.424Z,6.00
2019-04-06T20:00:45.659Z,6.07
2019-04-06T20:03:16.720Z,6.07
2019-04-06T20:05:46.796Z,6.30
2019-04-06T20:08:17.123Z,6.13
2019-04-06T20:10:47.903Z,5.90
2019-04-06T20:13:17.911Z,5.70
2019-04-06T20:15:47.840Z,5.50
2019-04-06T20:18:18.101Z,6.20
2019-04-06T20:20:49.499Z,5.93
2019-04-06T20:23:19.598Z,7.23
2019-04-06T20:25:50.308Z,6.07
2019-04-06T20:28:20.277Z,6.23
2019-04-06T20:30:50.129Z,7.43
2019-04-06T20:33:20.602Z,6.80
2019-04-06T20:35:50.708Z,6.07
2019-04-06T20:38:20.846Z,5.70
2019-04-06T20:40:50.827Z,6.37
2019-04-06T20:43:21.313Z,6.13
2019-04-06T20:45:51.335Z,7.40
2019-04-06T20:48:21.509Z,6.13
2019-04-06T20:50:51.406Z,5.73
2019-04-06T20:53:21.377Z,5.37
2019-04-06T20:55:51.311Z,5.00
2019-04-06T20:58:21.149Z,5.30
2019-04-06T21:00:51.266Z,5.97
2019-04-06T21:03:22.187Z,5.53
2019-04-06T21:05:52.180Z,5.70
2019-04-06T21:08:22.486Z,6.63
2019-04-06T21:10:52.427Z,5.50
2019-04-06T21:13:22.439Z,5.70
2019-04-06T21:15:52.461Z,5.30
2019-04-06T21:18:22.360Z,5.60
2019-04-06T21:20:52.271Z,5.73
2019-04-06T21:23:22.782Z,5.83
2019-04-06T21:25:52.842Z,8.27
2019-04-06T21:28:42.123Z,5.80
2019-04-06T21:31:12.664Z,5.60
2019-04-06T21:33:45.428Z,5.70
2019-04-06T21:36:14.207Z,5.67
2019-04-06T21:38:44.545Z,6.50
2019-04-06T21:41:15.001Z,6.60
2019-04-06T21:43:44.953Z,5.67
2019-04-06T21:46:15.800Z,5.97
2019-04-06T21:48:45.825Z,5.90
2019-04-06T21:51:15.903Z,7.00
2019-04-06T21:53:46.761Z,5.73
2019-04-06T21:56:16.884Z,4.90
2019-04-06T21:58:46.766Z,4.97
2019-04-06T22:01:19.795Z,6.30
2019-04-06T22:03:51.637Z,5.30
2019-04-06T22:06:24.347Z,4.73
2019-04-06T22:08:55.020Z,4.93
2019-04-06T22:11:25.003Z,4.80
2019-04-06T22:13:54.856Z,8.60
2019-04-06T22:16:24.856Z,4.30
2019-04-06T22:18:55.195Z,5.30
2019-04-06T22:21:25.070Z,5.03
2019-04-06T22:23:55.014Z,4.10
2019-04-06T22:26:25.019Z,4.40
2019-04-06T22:28:54.859Z,3.73
2019-04-06T22:31:24.775Z,5.33
2019-04-06T22:33:54.703Z,4.03
2019-04-06T22:36:24.564Z,4.43
2019-04-06T22:38:55.070Z,4.70
2019-04-06T22:41:25.098Z,4.20
2019-04-06T22:43:55.068Z,4.60
2019-04-06T22:46:25.208Z,6.83
2019-04-06T22:48:55.218Z,6.73
2019-04-06T22:51:25.026Z,4.73
2019-04-06T22:53:54.893Z,3.50
2019-04-06T22:56:24.880Z,3.70
2019-04-06T22:58:54.716Z,3.50
2019-04-06T23:01:25.534Z,5.23
2019-04-06T23:04:33.230Z,3.47
2019-04-06T23:07:07.517Z,4.40
2019-04-06T23:09:37.588Z,3.73
2019-04-06T23:12:07.496Z,3.67
2019-04-06T23:14:37.476Z,3.80
2019-04-06T23:17:07.305Z,3.50
2019-04-06T23:19:37.551Z,4.67
2019-04-06T23:22:07.562Z,5.13
2019-04-06T23:24:37.497Z,3.73
2019-04-06T23:27:07.826Z,3.50
2019-04-06T23:29:38.345Z,4.03
2019-04-06T23:32:08.252Z,4.00
2019-04-06T23:34:38.199Z,3.60
2019-04-06T23:37:08.416Z,3.80
2019-04-06T23:39:38.983Z,4.27
2019-04-06T23:42:08.897Z,4.00
2019-04-06T23:44:38.727Z,3.87
2019-04-06T23:47:08.646Z,3.90
2019-04-06T23:49:38.566Z,3.43
2019-04-06T23:52:08.529Z,3.47
2019-04-06T23:54:38.425Z,3.80
2019-04-06T23:57:08.286Z,3.47
2019-04-06T23:59:38.439Z,3.80
